createdAt,value
2022-08-27T00:04:21.199Z,99.90
2022-08-27T00:09:27.038Z,99.90
2022-08-27T00:14:30.542Z,99.90
2022-08-27T00:19:33.970Z,99.90
2022-08-27T00:24:38.531Z,99.90
2022-08-27T00:29:51.991Z,99.90
2022-08-27T00:34:54.761Z,99.90
2022-08-27T00:39:57.594Z,99.90
2022-08-27T00:45:00.861Z,99.90
2022-08-27T00:50:09.365Z,99.90
2022-08-27T00:55:39.815Z,99.90
2022-08-27T01:00:44.483Z,99.90
2022-08-27T01:05:49.521Z,99.90
2022-08-27T01:10:54.285Z,99.90
2022-08-27T01:15:59.504Z,99.90
2022-08-27T01:21:26.376Z,99.90
2022-08-27T01:26:30.851Z,99.90
2022-08-27T01:31:33.869Z,99.90
2022-08-27T01:36:36.916Z,99.90
2022-08-27T01:41:39.737Z,99.90
2022-08-27T01:46:42.667Z,99.90
2022-08-27T01:51:45.558Z,99.90
2022-08-27T01:56:48.458Z,99.90
2022-08-27T02:01:51.575Z,99.90
2022-08-27T02:06:54.472Z,99.90
2022-08-27T02:11:58.231Z,99.90
2022-08-27T02:17:01.335Z,99.90
2022-08-27T02:22:04.266Z,99.90
2022-08-27T02:27:07.282Z,99.90
2022-08-27T02:32:17.494Z,99.90
2022-08-27T02:37:27.456Z,99.90
2022-08-27T02:42:30.865Z,99.90
2022-08-27T02:47:35.332Z,99.90
2022-08-27T02:52:38.508Z,99.90
2022-08-27T02:57:41.481Z,99.90
2022-08-27T03:02:44.520Z,99.90
2022-08-27T03:07:47.552Z,99.90
2022-08-27T03:12:50.730Z,99.90
2022-08-27T03:18:12.533Z,99.90
2022-08-27T03:23:17.272Z,99.90
2022-08-27T03:28:26.196Z,99.90
2022-08-27T03:33:30.465Z,99.90
2022-08-27T03:38:33.664Z,99.90
2022-08-27T03:43:36.825Z,99.90
2022-08-27T03:48:40.006Z,99.90
2022-08-27T03:53:44.810Z,99.90
2022-08-27T03:58:47.719Z,99.90
2022-08-27T04:03:52.566Z,99.90
2022-08-27T04:08:55.551Z,99.90
2022-08-27T04:13:58.995Z,99.90
2022-08-27T04:19:03.922Z,99.90
2022-08-27T04:24:07.195Z,99.90
2022-08-27T04:29:10.286Z,99.90
2022-08-27T04:34:13.146Z,99.90
2022-08-27T04:39:16.395Z,99.90
2022-08-27T04:44:23.007Z,99.90
2022-08-27T04:49:29.884Z,99.90
2022-08-27T04:54:37.433Z,99.90
2022-08-27T04:59:40.398Z,99.90
2022-08-27T05:04:44.888Z,99.90
2022-08-27T05:09:48.013Z,99.90
2022-08-27T05:14:51.221Z,99.90
2022-08-27T05:19:54.245Z,99.90
2022-08-27T05:24:57.181Z,99.90
2022-08-27T05:30:00.114Z,99.90
2022-08-27T05:35:02.992Z,99.90
2022-08-27T05:40:06.973Z,99.90
2022-08-27T05:45:10.380Z,99.90
2022-08-27T05:50:23.055Z,99.90
2022-08-27T05:55:29.706Z,99.90
2022-08-27T06:00:50.985Z,99.90
2022-08-27T06:06:02.297Z,99.90
2022-08-27T06:11:07.329Z,99.90
2022-08-27T06:16:21.506Z,99.90
2022-08-27T06:21:25.017Z,99.90
2022-08-27T06:26:28.601Z,99.90
2022-08-27T06:31:31.978Z,99.90
2022-08-27T06:36:38.066Z,99.90
2022-08-27T06:41:42.625Z,99.90
2022-08-27T06:46:47.534Z,99.90
2022-08-27T06:51:50.643Z,99.90
2022-08-27T06:56:53.673Z,99.90
2022-08-27T07:01:56.712Z,99.90
2022-08-27T07:06:59.669Z,99.90
2022-08-27T07:12:02.785Z,99.90
2022-08-27T07:17:08.187Z,99.90
2022-08-27T07:22:14.433Z,99.90
2022-08-27T07:27:17.383Z,99.90
2022-08-27T07:32:20.298Z,99.90
2022-08-27T07:37:23.357Z,99.90
2022-08-27T07:42:48.697Z,99.90
2022-08-27T07:47:52.235Z,99.90
2022-08-27T07:52:55.205Z,99.90
2022-08-27T07:57:58.227Z,99.90
2022-08-27T08:03:02.180Z,99.90
2022-08-27T08:08:05.106Z,99.90
2022-08-27T08:13:08.596Z,99.90
2022-08-27T08:18:12.446Z,99.90
2022-08-27T08:23:15.537Z,99.90
2022-08-27T08:28:18.486Z,99.90
2022-08-27T08:33:22.220Z,99.90
2022-08-27T08:38:26.485Z,99.90
2022-08-27T08:43:47.657Z,99.90
2022-08-27T08:48:54.911Z,99.90
2022-08-27T08:54:07.406Z,99.90
2022-08-27T08:59:42.896Z,99.90
2022-08-27T09:04:46.047Z,93.30
2022-08-27T09:10:08.227Z,89.00
2022-08-27T09:15:14.201Z,89.50
2022-08-27T09:20:25.692Z,74.70
2022-08-27T09:25:36.897Z,63.40
2022-08-27T09:30:44.101Z,66.90
2022-08-27T09:35:47.976Z,59.40
2022-08-27T09:40:52.770Z,65.40
2022-08-27T09:45:58.649Z,69.50
2022-08-27T09:51:12.896Z,69.50
2022-08-27T09:56:32.543Z,64.00
2022-08-27T10:01:39.113Z,59.10
2022-08-27T10:06:50.897Z,61.30
2022-08-27T10:12:20.006Z,60.50
2022-08-27T10:17:31.695Z,57.90
2022-08-27T10:23:05.940Z,54.80
2022-08-27T10:28:39.225Z,60.90
2022-08-27T10:33:58.850Z,64.60
2022-08-27T10:39:21.337Z,55.00
2022-08-27T10:44:44.956Z,51.80
2022-08-27T10:49:59.875Z,57.50
2022-08-27T10:55:21.404Z,56.70
2022-08-27T11:00:25.706Z,55.90
2022-08-27T11:05:53.880Z,61.00
2022-08-27T11:11:51.467Z,64.00
2022-08-27T11:16:45.273Z,61.50
2022-08-27T11:22:04.467Z,63.10
2022-08-27T11:27:09.265Z,64.80
2022-08-27T11:32:42.250Z,62.60
2022-08-27T11:38:02.265Z,65.80
2022-08-27T11:43:11.785Z,66.50
2022-08-27T11:48:30.827Z,58.00
2022-08-27T11:53:42.709Z,58.60
2022-08-27T11:58:55.316Z,55.10
2022-08-27T12:04:06.234Z,55.20
2022-08-27T12:09:20.944Z,49.60
2022-08-27T12:14:50.111Z,49.00
2022-08-27T12:20:46.947Z,48.30
2022-08-27T12:26:01.900Z,46.20
2022-08-27T12:31:07.153Z,47.00
2022-08-27T12:36:33.077Z,46.00
2022-08-27T12:41:43.643Z,51.20
2022-08-27T12:46:51.120Z,46.70
2022-08-27T12:51:56.055Z,40.70
2022-08-27T12:57:31.355Z,40.10
2022-08-27T13:03:11.896Z,44.30
2022-08-27T13:08:35.485Z,48.20
2022-08-27T13:13:38.445Z,44.80
2022-08-27T13:18:41.737Z,47.70
2022-08-27T13:23:56.435Z,44.80
2022-08-27T13:29:03.536Z,45.80
2022-08-27T13:34:07.598Z,48.30
2022-08-27T13:39:10.626Z,49.00
2022-08-27T13:44:22.167Z,45.60
2022-08-27T13:49:27.926Z,51.20
2022-08-27T13:54:33.806Z,55.60
2022-08-27T13:59:42.971Z,51.70
2022-08-27T14:05:06.687Z,58.40
2022-08-27T14:10:25.987Z,70.00
2022-08-27T14:15:43.444Z,87.30
2022-08-27T14:20:46.426Z,92.20
2022-08-27T14:25:49.978Z,96.30
2022-08-27T14:30:53.764Z,85.50
2022-08-27T14:35:57.145Z,77.70
2022-08-27T14:41:00.866Z,61.40
2022-08-27T14:46:04.881Z,52.10
2022-08-27T14:51:13.735Z,54.00
2022-08-27T14:56:16.547Z,59.10
2022-08-27T15:01:23.157Z,68.00
2022-08-27T15:06:27.467Z,77.50
2022-08-27T15:11:34.217Z,91.60
2022-08-27T15:16:40.369Z,99.90
2022-08-27T15:21:47.806Z,99.90
2022-08-27T15:26:57.756Z,99.90
2022-08-27T15:32:00.700Z,99.90
2022-08-27T15:37:04.256Z,99.90
2022-08-27T15:42:08.901Z,99.90
2022-08-27T15:47:13.690Z,99.90
2022-08-27T15:52:22.462Z,99.90
2022-08-27T15:57:25.499Z,99.90
2022-08-27T16:02:28.523Z,99.90
2022-08-27T16:07:31.605Z,99.90
2022-08-27T16:12:36.339Z,99.90
2022-08-27T16:17:39.723Z,99.90
2022-08-27T16:22:44.004Z,99.90
2022-08-27T16:27:47.893Z,99.90
2022-08-27T16:32:52.773Z,99.90
2022-08-27T16:37:55.848Z,99.90
2022-08-27T16:43:01.781Z,99.90
2022-08-27T16:48:23.610Z,99.90
2022-08-27T16:53:26.520Z,99.90
2022-08-27T16:58:31.889Z,99.90
2022-08-27T17:09:12.102Z,99.90
2022-08-27T17:14:15.740Z,99.90
2022-08-27T17:19:19.220Z,99.90
2022-08-27T17:24:22.433Z,99.90
2022-08-27T17:29:25.532Z,99.90
2022-08-27T17:34:29.130Z,99.90
2022-08-27T17:39:32.249Z,99.90
2022-08-27T17:44:37.342Z,99.90
2022-08-27T17:49:40.370Z,99.90
2022-08-27T17:54:46.458Z,99.90
2022-08-27T17:59:50.249Z,99.90
2022-08-27T18:04:53.796Z,99.90
2022-08-27T18:09:57.031Z,99.90
2022-08-27T18:15:18.684Z,99.90
2022-08-27T18:20:26.134Z,99.90
2022-08-27T18:25:35.389Z,99.90
2022-08-27T18:30:41.996Z,99.90
2022-08-27T18:35:45.109Z,99.90
2022-08-27T18:40:50.120Z,99.90
2022-08-27T18:45:55.546Z,99.90
2022-08-27T18:51:00.561Z,99.90
2022-08-27T18:56:07.439Z,99.90
2022-08-27T19:01:14.162Z,99.90
2022-08-27T19:06:19.657Z,99.90
2022-08-27T19:11:23.159Z,99.90
2022-08-27T19:16:40.694Z,99.90
2022-08-27T19:21:48.014Z,99.90
2022-08-27T19:26:54.657Z,99.90
2022-08-27T19:31:57.678Z,99.90
2022-08-27T19:37:02.603Z,99.90
2022-08-27T19:42:06.451Z,99.90
2022-08-27T19:47:12.061Z,99.90
2022-08-27T19:52:15.518Z,99.90
2022-08-27T19:57:18.567Z,99.90
2022-08-27T20:02:21.554Z,99.90
2022-08-27T20:07:24.833Z,99.90
2022-08-27T20:12:27.904Z,99.90
2022-08-27T20:17:31.279Z,99.90
2022-08-27T20:22:34.465Z,99.90
2022-08-27T20:27:38.508Z,99.90
2022-08-27T20:32:41.819Z,99.90
2022-08-27T20:37:44.759Z,99.90
2022-08-27T20:42:47.979Z,99.90
2022-08-27T20:47:53.558Z,99.90
2022-08-27T20:52:56.759Z,99.90
2022-08-27T20:58:17.983Z,99.90
2022-08-27T21:03:20.935Z,99.90
2022-08-27T21:08:23.709Z,99.90
2022-08-27T21:13:29.148Z,99.90
2022-08-27T21:18:35.058Z,99.90
2022-08-27T21:23:39.823Z,99.90
2022-08-27T21:28:44.499Z,99.90
2022-08-27T21:33:47.527Z,99.90
2022-08-27T21:38:51.218Z,99.90
2022-08-27T21:43:54.849Z,99.90
2022-08-27T21:48:59.000Z,99.90
2022-08-27T21:54:02.618Z,99.90
2022-08-27T21:59:08.019Z,99.90
2022-08-27T22:04:11.056Z,99.90
2022-08-27T22:09:14.342Z,99.90
2022-08-27T22:14:18.493Z,99.90
2022-08-27T22:19:21.314Z,99.90
2022-08-27T22:24:24.674Z,99.90
2022-08-27T22:29:27.774Z,99.90
2022-08-27T22:34:34.224Z,99.90
2022-08-27T22:39:37.319Z,99.90
2022-08-27T22:44:41.279Z,99.90
2022-08-27T22:49:44.803Z,99.90
2022-08-27T22:54:47.600Z,99.90
2022-08-27T22:59:50.420Z,99.90
2022-08-27T23:04:55.303Z,99.90
2022-08-27T23:09:59.113Z,99.90
2022-08-27T23:15:03.618Z,99.90
2022-08-27T23:20:10.329Z,99.90
2022-08-27T23:25:31.657Z,99.90
2022-08-27T23:30:35.804Z,99.90
2022-08-27T23:35:39.150Z,99.90
2022-08-27T23:40:42.898Z,99.90
2022-08-27T23:45:45.743Z,99.90
2022-08-27T23:50:48.711Z,99.90
2022-08-27T23:55:51.572Z,99.90
